sensor_id;sensor_type;location;lat;lon;timestamp;P1;durP1;ratioP1;P2;durP2;ratioP2
73331;SDS011;61560;33.718;73.040;2023-04-15T00:01:09;20.30;;;8.07;;
73331;SDS011;61560;33.718;73.040;2023-04-15T00:03:39;17.48;;;8.07;;
73331;SDS011;61560;33.718;73.040;2023-04-15T00:06:07;20.10;;;8.43;;
73331;SDS011;61560;33.718;73.040;2023-04-15T00:08:34;18.80;;;7.95;;
73331;SDS011;61560;33.718;73.040;2023-04-15T00:11:01;21.10;;;7.45;;
73331;SDS011;61560;33.718;73.040;2023-04-15T00:13:30;14.18;;;7.45;;
73331;SDS011;61560;33.718;73.040;2023-04-15T00:16:01;19.27;;;8.25;;
73331;SDS011;61560;33.718;73.040;2023-04-15T00:18:28;17.73;;;7.40;;
73331;SDS011;61560;33.718;73.040;2023-04-15T00:21:05;16.27;;;7.70;;
73331;SDS011;61560;33.718;73.040;2023-04-15T00:23:33;17.70;;;6.97;;
73331;SDS011;61560;33.718;73.040;2023-04-15T00:26:01;20.58;;;7.78;;
73331;SDS011;61560;33.718;73.040;2023-04-15T00:28:33;21.25;;;7.30;;
73331;SDS011;61560;33.718;73.040;2023-04-15T00:31:02;15.23;;;7.43;;
73331;SDS011;61560;33.718;73.040;2023-04-15T00:33:30;29.98;;;7.95;;
73331;SDS011;61560;33.718;73.040;2023-04-15T00:35:57;18.35;;;7.22;;
73331;SDS011;61560;33.718;73.040;2023-04-15T00:38:25;16.15;;;7.38;;
73331;SDS011;61560;33.718;73.040;2023-04-15T00:40:52;22.55;;;7.20;;
73331;SDS011;61560;33.718;73.040;2023-04-15T00:43:20;20.30;;;8.07;;
73331;SDS011;61560;33.718;73.040;2023-04-15T00:45:47;19.48;;;8.50;;
73331;SDS011;61560;33.718;73.040;2023-04-15T00:48:15;20.55;;;7.93;;
73331;SDS011;61560;33.718;73.040;2023-04-15T00:50:43;17.38;;;7.53;;
73331;SDS011;61560;33.718;73.040;2023-04-15T00:53:10;23.73;;;8.00;;
73331;SDS011;61560;33.718;73.040;2023-04-15T00:55:37;20.27;;;7.82;;
73331;SDS011;61560;33.718;73.040;2023-04-15T00:58:05;14.38;;;7.03;;
73331;SDS011;61560;33.718;73.040;2023-04-15T01:00:32;23.58;;;7.32;;
73331;SDS011;61560;33.718;73.040;2023-04-15T01:03:00;16.33;;;6.78;;
73331;SDS011;61560;33.718;73.040;2023-04-15T01:05:29;20.17;;;7.60;;
73331;SDS011;61560;33.718;73.040;2023-04-15T01:07:57;15.15;;;7.13;;
73331;SDS011;61560;33.718;73.040;2023-04-15T01:10:25;19.38;;;6.95;;
73331;SDS011;61560;33.718;73.040;2023-04-15T01:12:52;17.10;;;6.40;;
73331;SDS011;61560;33.718;73.040;2023-04-15T01:15:19;15.10;;;7.22;;
73331;SDS011;61560;33.718;73.040;2023-04-15T01:17:47;19.27;;;6.32;;
73331;SDS011;61560;33.718;73.040;2023-04-15T01:20:15;16.70;;;7.10;;
73331;SDS011;61560;33.718;73.040;2023-04-15T01:22:43;21.70;;;7.28;;
73331;SDS011;61560;33.718;73.040;2023-04-15T01:25:11;16.05;;;7.55;;
73331;SDS011;61560;33.718;73.040;2023-04-15T01:27:43;15.15;;;7.35;;
73331;SDS011;61560;33.718;73.040;2023-04-15T01:30:10;17.02;;;7.10;;
73331;SDS011;61560;33.718;73.040;2023-04-15T01:32:37;17.83;;;7.15;;
73331;SDS011;61560;33.718;73.040;2023-04-15T01:35:04;15.45;;;7.18;;
73331;SDS011;61560;33.718;73.040;2023-04-15T01:37:32;21.85;;;7.25;;
73331;SDS011;61560;33.718;73.040;2023-04-15T01:40:00;13.73;;;6.90;;
73331;SDS011;61560;33.718;73.040;2023-04-15T01:42:28;17.25;;;6.70;;
73331;SDS011;61560;33.718;73.040;2023-04-15T01:44:55;20.77;;;7.13;;
73331;SDS011;61560;33.718;73.040;2023-04-15T01:47:22;19.60;;;8.27;;
73331;SDS011;61560;33.718;73.040;2023-04-15T01:49:49;23.10;;;9.27;;
73331;SDS011;61560;33.718;73.040;2023-04-15T01:52:16;19.05;;;9.63;;
73331;SDS011;61560;33.718;73.040;2023-04-15T01:54:43;25.17;;;10.05;;
73331;SDS011;61560;33.718;73.040;2023-04-15T01:57:11;20.38;;;10.13;;
73331;SDS011;61560;33.718;73.040;2023-04-15T01:59:38;28.23;;;11.70;;
73331;SDS011;61560;33.718;73.040;2023-04-15T02:02:06;22.08;;;10.48;;
73331;SDS011;61560;33.718;73.040;2023-04-15T02:04:33;26.58;;;10.85;;
73331;SDS011;61560;33.718;73.040;2023-04-15T02:07:01;22.77;;;10.07;;
73331;SDS011;61560;33.718;73.040;2023-04-15T02:09:28;24.27;;;10.55;;
73331;SDS011;61560;33.718;73.040;2023-04-15T02:11:55;23.88;;;10.35;;
73331;SDS011;61560;33.718;73.040;2023-04-15T02:14:22;19.40;;;9.98;;
73331;SDS011;61560;33.718;73.040;2023-04-15T02:16:49;20.90;;;9.55;;
73331;SDS011;61560;33.718;73.040;2023-04-15T02:19:16;22.77;;;9.57;;
73331;SDS011;61560;33.718;73.040;2023-04-15T02:21:43;23.95;;;9.77;;
73331;SDS011;61560;33.718;73.040;2023-04-15T02:24:11;28.70;;;10.32;;
73331;SDS011;61560;33.718;73.040;2023-04-15T02:26:40;21.42;;;9.07;;
73331;SDS011;61560;33.718;73.040;2023-04-15T02:29:07;28.50;;;10.20;;
73331;SDS011;61560;33.718;73.040;2023-04-15T02:31:34;35.25;;;10.32;;
73331;SDS011;61560;33.718;73.040;2023-04-15T02:34:02;26.88;;;9.18;;
73331;SDS011;61560;33.718;73.040;2023-04-15T02:36:30;25.05;;;9.73;;
73331;SDS011;61560;33.718;73.040;2023-04-15T02:38:57;30.27;;;9.88;;
73331;SDS011;61560;33.718;73.040;2023-04-15T02:41:27;29.70;;;10.43;;
73331;SDS011;61560;33.718;73.040;2023-04-15T02:43:55;30.08;;;10.40;;
73331;SDS011;61560;33.718;73.040;2023-04-15T02:46:29;27.35;;;11.43;;
73331;SDS011;61560;33.718;73.040;2023-04-15T02:48:56;34.70;;;13.38;;
73331;SDS011;61560;33.718;73.040;2023-04-15T02:51:29;40.72;;;14.55;;
73331;SDS011;61560;33.718;73.040;2023-04-15T02:54:02;53.10;;;15.27;;
73331;SDS011;61560;33.718;73.040;2023-04-15T02:56:30;36.22;;;14.68;;
73331;SDS011;61560;33.718;73.040;2023-04-15T02:58:58;28.60;;;13.98;;
73331;SDS011;61560;33.718;73.040;2023-04-15T03:01:25;28.55;;;13.73;;
73331;SDS011;61560;33.718;73.040;2023-04-15T03:03:52;38.90;;;12.32;;
73331;SDS011;61560;33.718;73.040;2023-04-15T03:06:19;26.75;;;11.75;;
73331;SDS011;61560;33.718;73.040;2023-04-15T03:08:49;31.13;;;11.25;;
73331;SDS011;61560;33.718;73.040;2023-04-15T03:11:18;27.20;;;12.32;;
73331;SDS011;61560;33.718;73.040;2023-04-15T03:13:46;39.60;;;13.52;;
73331;SDS011;61560;33.718;73.040;2023-04-15T03:16:28;35.03;;;13.35;;
73331;SDS011;61560;33.718;73.040;2023-04-15T03:18:57;36.35;;;13.88;;
73331;SDS011;61560;33.718;73.040;2023-04-15T03:21:24;30.90;;;13.35;;
73331;SDS011;61560;33.718;73.040;2023-04-15T03:23:53;44.38;;;14.95;;
73331;SDS011;61560;33.718;73.040;2023-04-15T03:29:04;40.13;;;13.70;;
73331;SDS011;61560;33.718;73.040;2023-04-15T03:31:32;34.67;;;13.38;;
73331;SDS011;61560;33.718;73.040;2023-04-15T03:33:59;29.85;;;13.73;;
73331;SDS011;61560;33.718;73.040;2023-04-15T03:36:29;42.33;;;14.65;;
73331;SDS011;61560;33.718;73.040;2023-04-15T03:39:00;30.88;;;13.07;;
73331;SDS011;61560;33.718;73.040;2023-04-15T03:41:27;28.15;;;12.73;;
73331;SDS011;61560;33.718;73.040;2023-04-15T03:43:54;29.77;;;13.32;;
73331;SDS011;61560;33.718;73.040;2023-04-15T03:46:21;30.40;;;12.75;;
73331;SDS011;61560;33.718;73.040;2023-04-15T03:48:48;25.25;;;11.55;;
73331;SDS011;61560;33.718;73.040;2023-04-15T03:51:15;26.42;;;11.48;;
73331;SDS011;61560;33.718;73.040;2023-04-15T03:53:43;29.42;;;12.10;;
73331;SDS011;61560;33.718;73.040;2023-04-15T03:56:10;32.38;;;11.60;;
73331;SDS011;61560;33.718;73.040;2023-04-15T03:58:37;29.67;;;12.90;;
73331;SDS011;61560;33.718;73.040;2023-04-15T04:01:04;29.75;;;12.82;;
73331;SDS011;61560;33.718;73.040;2023-04-15T04:03:31;28.05;;;13.82;;
73331;SDS011;61560;33.718;73.040;2023-04-15T04:05:58;38.53;;;14.15;;
73331;SDS011;61560;33.718;73.040;2023-04-15T04:08:25;32.70;;;14.57;;
73331;SDS011;61560;33.718;73.040;2023-04-15T04:10:52;39.70;;;14.75;;
73331;SDS011;61560;33.718;73.040;2023-04-15T04:13:20;32.38;;;14.98;;
73331;SDS011;61560;33.718;73.040;2023-04-15T04:15:46;30.92;;;15.38;;
73331;SDS011;61560;33.718;73.040;2023-04-15T04:18:13;38.88;;;15.95;;
73331;SDS011;61560;33.718;73.040;2023-04-15T04:20:40;31.38;;;17.70;;
73331;SDS011;61560;33.718;73.040;2023-04-15T04:23:08;34.55;;;15.65;;
73331;SDS011;61560;33.718;73.040;2023-04-15T04:25:35;40.95;;;16.77;;
73331;SDS011;61560;33.718;73.040;2023-04-15T04:28:03;33.83;;;16.63;;
73331;SDS011;61560;33.718;73.040;2023-04-15T04:30:30;26.35;;;16.17;;
73331;SDS011;61560;33.718;73.040;2023-04-15T04:32:58;28.58;;;15.23;;
73331;SDS011;61560;33.718;73.040;2023-04-15T04:35:26;25.98;;;14.13;;
73331;SDS011;61560;33.718;73.040;2023-04-15T04:37:55;26.27;;;12.40;;
73331;SDS011;61560;33.718;73.040;2023-04-15T04:40:22;23.10;;;11.38;;
73331;SDS011;61560;33.718;73.040;2023-04-15T04:42:49;22.80;;;11.48;;
73331;SDS011;61560;33.718;73.040;2023-04-15T04:45:15;20.10;;;10.65;;
73331;SDS011;61560;33.718;73.040;2023-04-15T04:47:43;19.20;;;10.30;;
73331;SDS011;61560;33.718;73.040;2023-04-15T04:50:11;25.38;;;10.38;;
73331;SDS011;61560;33.718;73.040;2023-04-15T04:52:38;17.35;;;9.45;;
73331;SDS011;61560;33.718;73.040;2023-04-15T04:55:06;20.52;;;8.82;;
73331;SDS011;61560;33.718;73.040;2023-04-15T04:57:35;19.98;;;9.52;;
73331;SDS011;61560;33.718;73.040;2023-04-15T05:00:05;17.20;;;9.55;;
73331;SDS011;61560;33.718;73.040;2023-04-15T05:02:34;23.23;;;9.40;;
73331;SDS011;61560;33.718;73.040;2023-04-15T05:05:01;19.90;;;8.85;;
73331;SDS011;61560;33.718;73.040;2023-04-15T05:07:28;17.20;;;8.35;;
73331;SDS011;61560;33.718;73.040;2023-04-15T05:09:55;22.45;;;8.48;;
73331;SDS011;61560;33.718;73.040;2023-04-15T05:12:23;15.85;;;8.85;;
73331;SDS011;61560;33.718;73.040;2023-04-15T05:14:50;18.42;;;8.35;;
73331;SDS011;61560;33.718;73.040;2023-04-15T05:17:17;21.83;;;9.55;;
73331;SDS011;61560;33.718;73.040;2023-04-15T05:19:44;15.63;;;9.02;;
73331;SDS011;61560;33.718;73.040;2023-04-15T05:22:11;20.77;;;8.95;;
73331;SDS011;61560;33.718;73.040;2023-04-15T05:24:38;22.52;;;9.70;;
73331;SDS011;61560;33.718;73.040;2023-04-15T05:27:07;29.17;;;9.75;;
73331;SDS011;61560;33.718;73.040;2023-04-15T05:29:37;21.30;;;9.60;;
73331;SDS011;61560;33.718;73.040;2023-04-15T05:32:04;22.65;;;9.57;;
73331;SDS011;61560;33.718;73.040;2023-04-15T05:34:32;29.10;;;10.10;;
73331;SDS011;61560;33.718;73.040;2023-04-15T05:36:59;22.58;;;9.57;;
73331;SDS011;61560;33.718;73.040;2023-04-15T05:39:26;16.70;;;9.40;;
73331;SDS011;61560;33.718;73.040;2023-04-15T05:41:53;19.33;;;9.32;;
73331;SDS011;61560;33.718;73.040;2023-04-15T05:44:20;17.48;;;9.43;;
73331;SDS011;61560;33.718;73.040;2023-04-15T05:46:47;25.67;;;9.85;;
73331;SDS011;61560;33.718;73.040;2023-04-15T05:49:14;18.75;;;9.15;;
73331;SDS011;61560;33.718;73.040;2023-04-15T05:51:41;23.05;;;9.63;;
73331;SDS011;61560;33.718;73.040;2023-04-15T05:54:08;25.50;;;9.85;;
73331;SDS011;61560;33.718;73.040;2023-04-15T05:56:35;23.50;;;10.25;;
73331;SDS011;61560;33.718;73.040;2023-04-15T05:59:02;23.27;;;11.27;;
73331;SDS011;61560;33.718;73.040;2023-04-15T06:01:29;26.98;;;10.40;;
73331;SDS011;61560;33.718;73.040;2023-04-15T06:03:56;23.27;;;11.00;;
73331;SDS011;61560;33.718;73.040;2023-04-15T06:06:23;21.80;;;11.18;;
73331;SDS011;61560;33.718;73.040;2023-04-15T06:08:52;18.93;;;11.17;;
73331;SDS011;61560;33.718;73.040;2023-04-15T06:11:20;19.75;;;9.32;;
73331;SDS011;61560;33.718;73.040;2023-04-15T06:13:49;21.33;;;11.30;;
73331;SDS011;61560;33.718;73.040;2023-04-15T06:16:16;21.15;;;10.45;;
73331;SDS011;61560;33.718;73.040;2023-04-15T06:18:43;29.40;;;9.80;;
73331;SDS011;61560;33.718;73.040;2023-04-15T06:21:10;20.98;;;10.07;;
73331;SDS011;61560;33.718;73.040;2023-04-15T06:23:37;22.75;;;9.60;;
73331;SDS011;61560;33.718;73.040;2023-04-15T06:26:06;22.13;;;9.30;;
73331;SDS011;61560;33.718;73.040;2023-04-15T06:28:33;26.63;;;8.75;;
73331;SDS011;61560;33.718;73.040;2023-04-15T06:31:00;18.67;;;8.43;;
73331;SDS011;61560;33.718;73.040;2023-04-15T06:33:27;24.20;;;8.68;;
73331;SDS011;61560;33.718;73.040;2023-04-15T06:35:54;29.08;;;9.00;;
73331;SDS011;61560;33.718;73.040;2023-04-15T06:38:21;45.72;;;11.50;;
73331;SDS011;61560;33.718;73.040;2023-04-15T06:40:48;29.45;;;9.65;;
73331;SDS011;61560;33.718;73.040;2023-04-15T06:43:16;20.35;;;8.70;;
73331;SDS011;61560;33.718;73.040;2023-04-15T06:45:43;18.90;;;9.05;;
73331;SDS011;61560;33.718;73.040;2023-04-15T06:48:11;13.85;;;8.20;;
73331;SDS011;61560;33.718;73.040;2023-04-15T06:50:38;23.52;;;9.05;;
73331;SDS011;61560;33.718;73.040;2023-04-15T06:53:06;19.38;;;8.25;;
73331;SDS011;61560;33.718;73.040;2023-04-15T06:55:33;17.67;;;8.52;;
73331;SDS011;61560;33.718;73.040;2023-04-15T06:58:00;22.45;;;8.93;;
73331;SDS011;61560;33.718;73.040;2023-04-15T07:00:27;23.83;;;10.68;;
73331;SDS011;61560;33.718;73.040;2023-04-15T07:02:56;23.70;;;10.30;;
73331;SDS011;61560;33.718;73.040;2023-04-15T07:05:23;19.58;;;10.75;;
73331;SDS011;61560;33.718;73.040;2023-04-15T07:07:54;27.80;;;12.63;;
73331;SDS011;61560;33.718;73.040;2023-04-15T07:10:22;19.27;;;8.90;;
73331;SDS011;61560;33.718;73.040;2023-04-15T07:12:49;18.95;;;9.32;;
73331;SDS011;61560;33.718;73.040;2023-04-15T07:15:16;22.25;;;8.68;;
73331;SDS011;61560;33.718;73.040;2023-04-15T07:17:43;20.92;;;8.80;;
73331;SDS011;61560;33.718;73.040;2023-04-15T07:20:10;24.77;;;8.95;;
73331;SDS011;61560;33.718;73.040;2023-04-15T07:22:37;21.30;;;9.05;;
73331;SDS011;61560;33.718;73.040;2023-04-15T07:25:05;31.48;;;8.80;;
73331;SDS011;61560;33.718;73.040;2023-04-15T07:27:36;26.27;;;9.68;;
73331;SDS011;61560;33.718;73.040;2023-04-15T07:30:03;14.82;;;8.73;;
73331;SDS011;61560;33.718;73.040;2023-04-15T07:32:31;21.92;;;8.88;;
73331;SDS011;61560;33.718;73.040;2023-04-15T07:34:58;21.02;;;8.73;;
73331;SDS011;61560;33.718;73.040;2023-04-15T07:37:25;17.60;;;8.07;;
73331;SDS011;61560;33.718;73.040;2023-04-15T07:39:53;21.38;;;9.40;;
73331;SDS011;61560;33.718;73.040;2023-04-15T07:42:20;24.63;;;9.57;;
73331;SDS011;61560;33.718;73.040;2023-04-15T07:44:47;20.15;;;8.32;;
73331;SDS011;61560;33.718;73.040;2023-04-15T07:47:14;28.38;;;8.60;;
73331;SDS011;61560;33.718;73.040;2023-04-15T07:49:41;18.42;;;8.82;;
73331;SDS011;61560;33.718;73.040;2023-04-15T07:52:09;20.13;;;9.07;;
73331;SDS011;61560;33.718;73.040;2023-04-15T07:54:37;22.15;;;9.27;;
73331;SDS011;61560;33.718;73.040;2023-04-15T07:57:04;25.70;;;8.45;;
73331;SDS011;61560;33.718;73.040;2023-04-15T07:59:32;27.92;;;9.00;;
73331;SDS011;61560;33.718;73.040;2023-04-15T08:01:59;21.13;;;8.50;;
73331;SDS011;61560;33.718;73.040;2023-04-15T08:04:28;24.50;;;9.52;;
73331;SDS011;61560;33.718;73.040;2023-04-15T08:06:55;25.05;;;9.45;;
73331;SDS011;61560;33.718;73.040;2023-04-15T08:09:22;26.13;;;9.93;;
73331;SDS011;61560;33.718;73.040;2023-04-15T08:11:50;33.70;;;10.57;;
73331;SDS011;61560;33.718;73.040;2023-04-15T08:14:16;19.17;;;9.52;;
73331;SDS011;61560;33.718;73.040;2023-04-15T08:16:44;21.40;;;8.90;;
73331;SDS011;61560;33.718;73.040;2023-04-15T08:19:11;20.63;;;8.77;;
73331;SDS011;61560;33.718;73.040;2023-04-15T08:21:38;21.40;;;8.63;;
73331;SDS011;61560;33.718;73.040;2023-04-15T08:24:05;17.33;;;8.25;;
73331;SDS011;61560;33.718;73.040;2023-04-15T08:26:33;21.38;;;8.43;;
73331;SDS011;61560;33.718;73.040;2023-04-15T08:29:00;25.95;;;9.48;;
73331;SDS011;61560;33.718;73.040;2023-04-15T08:31:28;22.35;;;8.90;;
73331;SDS011;61560;33.718;73.040;2023-04-15T08:33:56;30.83;;;9.75;;
73331;SDS011;61560;33.718;73.040;2023-04-15T08:36:23;20.35;;;9.50;;
73331;SDS011;61560;33.718;73.040;2023-04-15T08:38:50;24.73;;;8.57;;
73331;SDS011;61560;33.718;73.040;2023-04-15T08:41:21;23.08;;;8.02;;
73331;SDS011;61560;33.718;73.040;2023-04-15T08:44:00;24.50;;;9.05;;
73331;SDS011;61560;33.718;73.040;2023-04-15T08:46:32;30.75;;;8.70;;
73331;SDS011;61560;33.718;73.040;2023-04-15T08:49:02;16.48;;;7.80;;
73331;SDS011;61560;33.718;73.040;2023-04-15T08:51:30;23.70;;;8.50;;
73331;SDS011;61560;33.718;73.040;2023-04-15T08:53:58;19.30;;;8.55;;
73331;SDS011;61560;33.718;73.040;2023-04-15T08:56:26;20.60;;;8.65;;
73331;SDS011;61560;33.718;73.040;2023-04-15T09:01:24;20.40;;;8.07;;
73331;SDS011;61560;33.718;73.040;2023-04-15T09:03:52;19.55;;;7.90;;
73331;SDS011;61560;33.718;73.040;2023-04-15T09:06:19;20.55;;;8.27;;
73331;SDS011;61560;33.718;73.040;2023-04-15T09:08:50;19.73;;;8.95;;
73331;SDS011;61560;33.718;73.040;2023-04-15T09:11:18;21.02;;;8.23;;
73331;SDS011;61560;33.718;73.040;2023-04-15T09:13:46;20.70;;;9.20;;
73331;SDS011;61560;33.718;73.040;2023-04-15T09:16:14;16.50;;;8.15;;
73331;SDS011;61560;33.718;73.040;2023-04-15T09:18:41;20.70;;;8.20;;
73331;SDS011;61560;33.718;73.040;2023-04-15T09:21:09;20.10;;;7.85;;
73331;SDS011;61560;33.718;73.040;2023-04-15T09:23:53;23.00;;;7.45;;
73331;SDS011;61560;33.718;73.040;2023-04-15T09:26:32;19.65;;;7.40;;
73331;SDS011;61560;33.718;73.040;2023-04-15T09:29:06;17.15;;;7.70;;
73331;SDS011;61560;33.718;73.040;2023-04-15T09:31:35;16.85;;;7.78;;
73331;SDS011;61560;33.718;73.040;2023-04-15T09:34:03;18.92;;;7.20;;
73331;SDS011;61560;33.718;73.040;2023-04-15T09:37:13;20.25;;;7.78;;
73331;SDS011;61560;33.718;73.040;2023-04-15T09:39:23;17.65;;;7.18;;
73331;SDS011;61560;33.718;73.040;2023-04-15T09:42:05;13.10;;;6.90;;
73331;SDS011;61560;33.718;73.040;2023-04-15T09:44:33;19.92;;;7.30;;
73331;SDS011;61560;33.718;73.040;2023-04-15T09:47:00;19.20;;;6.40;;
73331;SDS011;61560;33.718;73.040;2023-04-15T09:49:27;18.65;;;7.30;;
73331;SDS011;61560;33.718;73.040;2023-04-15T09:52:12;18.90;;;7.10;;
73331;SDS011;61560;33.718;73.040;2023-04-15T09:54:40;11.63;;;5.82;;
73331;SDS011;61560;33.718;73.040;2023-04-15T09:57:11;21.03;;;6.87;;
73331;SDS011;61560;33.718;73.040;2023-04-15T09:59:37;12.82;;;5.72;;
73331;SDS011;61560;33.718;73.040;2023-04-15T10:02:06;17.15;;;7.22;;
73331;SDS011;61560;33.718;73.040;2023-04-15T10:04:34;13.63;;;6.60;;
73331;SDS011;61560;33.718;73.040;2023-04-15T10:07:06;14.02;;;6.00;;
73331;SDS011;61560;33.718;73.040;2023-04-15T10:09:34;16.60;;;6.70;;
73331;SDS011;61560;33.718;73.040;2023-04-15T10:12:03;14.15;;;5.68;;
73331;SDS011;61560;33.718;73.040;2023-04-15T10:14:31;16.80;;;6.45;;
73331;SDS011;61560;33.718;73.040;2023-04-15T10:17:01;16.67;;;6.67;;
73331;SDS011;61560;33.718;73.040;2023-04-15T10:19:30;16.17;;;6.18;;
73331;SDS011;61560;33.718;73.040;2023-04-15T10:22:02;13.90;;;6.28;;
73331;SDS011;61560;33.718;73.040;2023-04-15T10:24:32;17.88;;;6.40;;
73331;SDS011;61560;33.718;73.040;2023-04-15T10:27:00;20.17;;;6.77;;
73331;SDS011;61560;33.718;73.040;2023-04-15T10:29:29;10.75;;;6.15;;
73331;SDS011;61560;33.718;73.040;2023-04-15T10:32:00;18.42;;;5.90;;
73331;SDS011;61560;33.718;73.040;2023-04-15T10:34:29;19.27;;;6.68;;
73331;SDS011;61560;33.718;73.040;2023-04-15T10:36:59;14.43;;;6.32;;
73331;SDS011;61560;33.718;73.040;2023-04-15T10:39:38;12.32;;;6.18;;
73331;SDS011;61560;33.718;73.040;2023-04-15T10:42:07;16.58;;;5.65;;
73331;SDS011;61560;33.718;73.040;2023-04-15T10:44:37;20.73;;;5.95;;
73331;SDS011;61560;33.718;73.040;2023-04-15T10:47:11;17.92;;;6.53;;
73331;SDS011;61560;33.718;73.040;2023-04-15T10:49:45;11.77;;;5.65;;
73331;SDS011;61560;33.718;73.040;2023-04-15T10:52:22;12.15;;;5.82;;
73331;SDS011;61560;33.718;73.040;2023-04-15T10:55:00;15.80;;;6.45;;
73331;SDS011;61560;33.718;73.040;2023-04-15T10:57:39;11.82;;;5.57;;
73331;SDS011;61560;33.718;73.040;2023-04-15T11:02:38;14.18;;;5.80;;
73331;SDS011;61560;33.718;73.040;2023-04-15T11:05:23;12.07;;;5.85;;
73331;SDS011;61560;33.718;73.040;2023-04-15T11:08:09;13.05;;;5.95;;
73331;SDS011;61560;33.718;73.040;2023-04-15T11:13:04;16.63;;;5.78;;
73331;SDS011;61560;33.718;73.040;2023-04-15T11:18:10;14.15;;;6.32;;
73331;SDS011;61560;33.718;73.040;2023-04-15T11:20:44;14.10;;;5.40;;
73331;SDS011;61560;33.718;73.040;2023-04-15T11:23:34;17.35;;;6.72;;
73331;SDS011;61560;33.718;73.040;2023-04-15T11:26:03;16.17;;;6.90;;
73331;SDS011;61560;33.718;73.040;2023-04-15T11:28:35;14.45;;;6.57;;
73331;SDS011;61560;33.718;73.040;2023-04-15T11:31:13;18.27;;;7.45;;
73331;SDS011;61560;33.718;73.040;2023-04-15T11:33:53;17.40;;;7.03;;
73331;SDS011;61560;33.718;73.040;2023-04-15T11:36:25;13.57;;;6.40;;
73331;SDS011;61560;33.718;73.040;2023-04-15T11:38:53;15.65;;;6.53;;
73331;SDS011;61560;33.718;73.040;2023-04-15T11:41:22;17.63;;;6.10;;
73331;SDS011;61560;33.718;73.040;2023-04-15T11:43:50;21.45;;;6.78;;
73331;SDS011;61560;33.718;73.040;2023-04-15T11:46:18;14.73;;;6.22;;
73331;SDS011;61560;33.718;73.040;2023-04-15T11:48:46;16.85;;;6.68;;
73331;SDS011;61560;33.718;73.040;2023-04-15T11:51:13;22.25;;;6.57;;
73331;SDS011;61560;33.718;73.040;2023-04-15T11:56:08;16.45;;;7.18;;
73331;SDS011;61560;33.718;73.040;2023-04-15T11:58:37;15.68;;;6.28;;
73331;SDS011;61560;33.718;73.040;2023-04-15T12:01:06;16.88;;;6.60;;
73331;SDS011;61560;33.718;73.040;2023-04-15T12:03:40;15.35;;;6.45;;
73331;SDS011;61560;33.718;73.040;2023-04-15T12:06:18;21.27;;;6.43;;
73331;SDS011;61560;33.718;73.040;2023-04-15T12:16:58;14.85;;;6.65;;
73331;SDS011;61560;33.718;73.040;2023-04-15T12:19:31;12.73;;;5.78;;
73331;SDS011;61560;33.718;73.040;2023-04-15T12:24:30;17.88;;;6.32;;
73331;SDS011;61560;33.718;73.040;2023-04-15T12:27:03;17.88;;;6.32;;
73331;SDS011;61560;33.718;73.040;2023-04-15T12:29:31;18.35;;;6.07;;
73331;SDS011;61560;33.718;73.040;2023-04-15T12:32:06;15.13;;;6.35;;
73331;SDS011;61560;33.718;73.040;2023-04-15T12:34:49;19.08;;;5.60;;
73331;SDS011;61560;33.718;73.040;2023-04-15T12:37:17;26.90;;;7.40;;
73331;SDS011;61560;33.718;73.040;2023-04-15T12:39:46;15.73;;;7.10;;
73331;SDS011;61560;33.718;73.040;2023-04-15T12:42:14;18.15;;;6.70;;
73331;SDS011;61560;33.718;73.040;2023-04-15T12:44:42;14.63;;;5.70;;
73331;SDS011;61560;33.718;73.040;2023-04-15T12:47:09;21.75;;;6.50;;
73331;SDS011;61560;33.718;73.040;2023-04-15T12:49:37;13.23;;;6.03;;
73331;SDS011;61560;33.718;73.040;2023-04-15T12:52:04;14.27;;;6.32;;
73331;SDS011;61560;33.718;73.040;2023-04-15T12:54:32;19.33;;;7.03;;
73331;SDS011;61560;33.718;73.040;2023-04-15T12:56:59;24.45;;;7.82;;
73331;SDS011;61560;33.718;73.040;2023-04-15T12:59:27;16.80;;;7.22;;
73331;SDS011;61560;33.718;73.040;2023-04-15T13:01:55;23.00;;;7.93;;
73331;SDS011;61560;33.718;73.040;2023-04-15T13:04:23;25.88;;;8.25;;
73331;SDS011;61560;33.718;73.040;2023-04-15T13:06:50;23.77;;;8.50;;
73331;SDS011;61560;33.718;73.040;2023-04-15T13:09:17;26.77;;;10.32;;
73331;SDS011;61560;33.718;73.040;2023-04-15T13:11:44;22.58;;;10.32;;
73331;SDS011;61560;33.718;73.040;2023-04-15T13:14:11;21.13;;;9.73;;
73331;SDS011;61560;33.718;73.040;2023-04-15T13:16:38;19.25;;;9.27;;
73331;SDS011;61560;33.718;73.040;2023-04-15T13:19:06;21.90;;;8.55;;
73331;SDS011;61560;33.718;73.040;2023-04-15T13:21:34;20.20;;;7.93;;
73331;SDS011;61560;33.718;73.040;2023-04-15T13:24:04;18.83;;;8.50;;
73331;SDS011;61560;33.718;73.040;2023-04-15T13:26:32;16.58;;;8.98;;
73331;SDS011;61560;33.718;73.040;2023-04-15T13:28:59;23.05;;;8.73;;
73331;SDS011;61560;33.718;73.040;2023-04-15T13:31:33;18.90;;;8.07;;
73331;SDS011;61560;33.718;73.040;2023-04-15T13:38:15;26.48;;;8.50;;
73331;SDS011;61560;33.718;73.040;2023-04-15T13:40:45;19.38;;;8.55;;
73331;SDS011;61560;33.718;73.040;2023-04-15T13:43:12;21.77;;;8.70;;
73331;SDS011;61560;33.718;73.040;2023-04-15T13:45:39;23.85;;;9.25;;
73331;SDS011;61560;33.718;73.040;2023-04-15T13:48:06;15.98;;;8.20;;
73331;SDS011;61560;33.718;73.040;2023-04-15T13:50:36;29.37;;;8.70;;
73331;SDS011;61560;33.718;73.040;2023-04-15T13:53:03;21.42;;;8.38;;
73331;SDS011;61560;33.718;73.040;2023-04-15T13:55:31;23.23;;;8.23;;
73331;SDS011;61560;33.718;73.040;2023-04-15T13:57:59;17.23;;;8.48;;
73331;SDS011;61560;33.718;73.040;2023-04-15T14:00:26;19.90;;;8.65;;
73331;SDS011;61560;33.718;73.040;2023-04-15T14:02:53;21.08;;;9.07;;
73331;SDS011;61560;33.718;73.040;2023-04-15T14:05:22;17.55;;;8.85;;
73331;SDS011;61560;33.718;73.040;2023-04-15T14:07:49;20.98;;;8.80;;
73331;SDS011;61560;33.718;73.040;2023-04-15T14:10:16;15.77;;;9.02;;
73331;SDS011;61560;33.718;73.040;2023-04-15T14:12:43;22.63;;;9.30;;
73331;SDS011;61560;33.718;73.040;2023-04-15T14:15:11;20.35;;;8.73;;
73331;SDS011;61560;33.718;73.040;2023-04-15T14:17:38;21.52;;;8.43;;
73331;SDS011;61560;33.718;73.040;2023-04-15T14:20:07;20.95;;;8.68;;
73331;SDS011;61560;33.718;73.040;2023-04-15T14:22:34;16.83;;;8.25;;
73331;SDS011;61560;33.718;73.040;2023-04-15T14:25:02;19.50;;;8.40;;
73331;SDS011;61560;33.718;73.040;2023-04-15T14:27:31;18.55;;;8.02;;
73331;SDS011;61560;33.718;73.040;2023-04-15T14:29:58;19.63;;;8.43;;
73331;SDS011;61560;33.718;73.040;2023-04-15T14:32:25;18.70;;;9.05;;
73331;SDS011;61560;33.718;73.040;2023-04-15T14:34:52;17.55;;;8.65;;
73331;SDS011;61560;33.718;73.040;2023-04-15T14:37:19;27.55;;;9.38;;
73331;SDS011;61560;33.718;73.040;2023-04-15T14:39:46;17.70;;;8.30;;
73331;SDS011;61560;33.718;73.040;2023-04-15T14:42:13;21.60;;;9.18;;
73331;SDS011;61560;33.718;73.040;2023-04-15T14:44:40;32.22;;;9.60;;
73331;SDS011;61560;33.718;73.040;2023-04-15T14:47:09;19.33;;;9.13;;
73331;SDS011;61560;33.718;73.040;2023-04-15T14:49:36;25.15;;;9.40;;
73331;SDS011;61560;33.718;73.040;2023-04-15T14:52:04;27.85;;;9.52;;
73331;SDS011;61560;33.718;73.040;2023-04-15T14:54:31;22.67;;;9.13;;
73331;SDS011;61560;33.718;73.040;2023-04-15T14:56:58;22.80;;;8.55;;